createdAt,value
2018-01-05T00:00:45.891Z,98891.16
2018-01-05T00:03:13.564Z,98895.48
2018-01-05T00:05:41.253Z,98910.55
2018-01-05T00:08:11.045Z,98897.88
2018-01-05T00:10:43.032Z,98891.94
2018-01-05T00:13:11.065Z,98906.91
2018-01-05T00:18:17.617Z,98904.79
2018-01-05T00:20:45.386Z,98909.30
2018-01-05T00:23:17.646Z,98902.09
2018-01-05T00:25:49.903Z,98904.59
2018-01-05T00:28:17.619Z,98912.54
2018-01-05T00:30:45.392Z,98913.48
2018-01-05T00:33:15.637Z,98922.11
2018-01-05T00:35:46.383Z,98929.73
2018-01-05T00:38:14.284Z,98925.78
2018-01-05T00:40:49.818Z,98917.70
2018-01-05T00:43:18.481Z,98921.09
2018-01-05T00:45:51.545Z,98938.28
2018-01-05T00:48:21.685Z,98942.33
2018-01-05T00:50:49.366Z,98944.79
2018-01-05T00:53:17.068Z,98947.34
2018-01-05T00:55:47.293Z,98919.98
2018-01-05T00:58:16.683Z,98949.06
2018-01-05T01:00:44.560Z,98948.59
2018-01-05T01:03:15.025Z,98950.11
2018-01-05T01:05:42.806Z,98960.83
2018-01-05T01:08:13.933Z,98968.72
2018-01-05T01:10:41.875Z,98957.02
2018-01-05T01:13:10.430Z,98959.58
2018-01-05T01:18:07.303Z,98966.22
2018-01-05T01:20:35.043Z,98979.53
2018-01-05T01:23:03.327Z,98983.74
2018-01-05T01:25:31.084Z,98979.60
2018-01-05T01:27:58.868Z,98967.57
2018-01-05T01:30:26.591Z,98977.38
2018-01-05T01:32:54.636Z,98980.31
2018-01-05T01:35:22.322Z,98977.52
2018-01-05T01:37:51.684Z,98968.55
2018-01-05T01:40:22.952Z,98985.84
2018-01-05T01:42:57.470Z,98966.80
2018-01-05T01:45:32.673Z,98973.53
2018-01-05T01:48:00.374Z,98967.23
2018-01-05T01:50:28.065Z,98967.73
2018-01-05T01:52:55.763Z,98976.91
2018-01-05T01:55:23.504Z,98993.55
2018-01-05T01:57:51.246Z,98978.45
2018-01-05T02:00:21.028Z,98977.78
2018-01-05T02:02:50.555Z,98966.39
2018-01-05T02:05:21.014Z,98959.48
2018-01-05T02:07:48.678Z,98965.11
2018-01-05T02:10:16.355Z,98967.17
2018-01-05T02:12:44.631Z,98969.19
2018-01-05T02:15:12.750Z,98968.41
2018-01-05T02:17:41.132Z,98978.86
2018-01-05T02:20:08.784Z,98983.74
2018-01-05T02:22:38.402Z,98980.48
2018-01-05T02:25:06.462Z,98986.61
2018-01-05T02:27:34.085Z,98984.25
2018-01-05T02:30:03.028Z,98988.39
2018-01-05T02:32:32.406Z,98984.86
2018-01-05T02:35:00.080Z,98989.38
2018-01-05T02:37:28.240Z,98988.97
2018-01-05T02:39:55.977Z,98996.38
2018-01-05T02:42:25.752Z,98995.64
2018-01-05T02:44:55.352Z,98998.30
2018-01-05T02:47:23.114Z,99013.73
2018-01-05T02:49:50.838Z,99008.11
2018-01-05T02:52:18.736Z,99001.44
2018-01-05T02:54:46.819Z,99013.37
2018-01-05T02:57:15.094Z,99009.02
2018-01-05T02:59:44.337Z,98999.02
2018-01-05T03:02:12.165Z,98993.52
2018-01-05T03:04:41.135Z,98997.90
2018-01-05T03:07:08.911Z,98992.51
2018-01-05T03:09:36.983Z,98997.02
2018-01-05T03:12:05.976Z,98993.28
2018-01-05T03:14:33.807Z,98984.98
2018-01-05T03:17:03.865Z,98995.11
2018-01-05T03:19:31.740Z,98997.70
2018-01-05T03:21:59.828Z,98999.78
2018-01-05T03:24:27.617Z,99001.27
2018-01-05T03:26:55.287Z,99002.84
2018-01-05T03:29:22.987Z,99008.85
2018-01-05T03:31:50.909Z,99011.31
2018-01-05T03:34:18.696Z,99000.16
2018-01-05T03:36:46.465Z,98998.00
2018-01-05T03:39:14.288Z,98995.80
2018-01-05T03:41:42.126Z,98999.41
2018-01-05T03:44:09.886Z,98999.45
2018-01-05T03:46:41.704Z,99003.83
2018-01-05T03:49:10.779Z,99002.72
2018-01-05T03:51:38.508Z,98998.00
2018-01-05T03:54:07.058Z,99010.66
2018-01-05T03:56:35.878Z,99016.13
2018-01-05T03:59:03.538Z,99015.63
2018-01-05T04:01:32.530Z,99005.01
2018-01-05T04:04:00.149Z,99013.02
2018-01-05T04:06:27.923Z,99001.97
2018-01-05T04:08:57.352Z,99012.92
2018-01-05T04:11:25.247Z,99005.84
2018-01-05T04:13:53.627Z,99021.20
2018-01-05T04:16:21.391Z,99019.69
2018-01-05T04:18:49.123Z,99020.30
2018-01-05T04:21:16.845Z,99029.52
2018-01-05T04:23:44.668Z,99032.66
2018-01-05T04:26:12.361Z,99032.66
2018-01-05T04:28:40.166Z,99026.94
2018-01-05T04:31:07.853Z,99033.74
2018-01-05T04:33:35.743Z,99032.09
2018-01-05T04:36:03.432Z,99030.06
2018-01-05T04:38:31.209Z,99037.65
2018-01-05T04:40:58.900Z,99031.31
2018-01-05T04:43:26.684Z,99031.61
2018-01-05T04:45:55.161Z,99041.84
2018-01-05T04:48:22.894Z,99043.80
2018-01-05T04:50:51.156Z,99043.55
2018-01-05T04:53:19.195Z,99050.45
2018-01-05T04:55:47.126Z,99048.87
2018-01-05T04:58:14.830Z,99048.47
2018-01-05T05:00:42.740Z,99053.15
2018-01-05T05:03:10.418Z,99056.05
2018-01-05T05:05:38.513Z,99062.34
2018-01-05T05:08:06.212Z,99061.80
2018-01-05T05:10:33.952Z,99056.11
2018-01-05T05:13:01.657Z,99064.21
2018-01-05T05:15:29.376Z,99071.89
2018-01-05T05:17:57.443Z,99071.19
2018-01-05T05:20:25.080Z,99084.95
2018-01-05T05:22:52.775Z,99091.23
2018-01-05T05:25:20.547Z,99094.80
2018-01-05T05:27:48.490Z,99093.37
2018-01-05T05:30:16.152Z,99092.50
2018-01-05T05:32:44.001Z,99101.17
2018-01-05T05:35:11.690Z,99102.73
2018-01-05T05:37:39.383Z,99104.58
2018-01-05T05:40:07.162Z,99103.41
2018-01-05T05:42:34.866Z,99108.20
2018-01-05T05:45:02.849Z,99114.17
2018-01-05T05:47:30.507Z,99113.33
2018-01-05T05:49:58.574Z,99113.52
2018-01-05T05:52:26.309Z,99114.42
2018-01-05T05:54:54.001Z,99123.69
2018-01-05T05:57:23.950Z,99116.72
2018-01-05T05:59:51.693Z,99119.81
2018-01-05T06:02:19.361Z,99128.27
2018-01-05T06:04:48.530Z,99125.24
2018-01-05T06:07:16.199Z,99133.45
2018-01-05T06:09:43.974Z,99135.21
2018-01-05T06:12:11.697Z,99136.16
2018-01-05T06:14:39.382Z,99132.20
2018-01-05T06:17:07.079Z,99126.81
2018-01-05T06:19:34.744Z,99136.00
2018-01-05T06:22:02.504Z,99125.11
2018-01-05T06:24:30.582Z,99133.48
2018-01-05T06:26:58.255Z,99127.65
2018-01-05T06:29:30.826Z,99133.28
2018-01-05T06:32:00.832Z,99139.36
2018-01-05T06:34:29.705Z,99138.66
2018-01-05T06:36:57.458Z,99148.56
2018-01-05T06:39:26.214Z,99151.27
2018-01-05T06:41:54.033Z,99157.66
2018-01-05T06:44:24.412Z,99161.87
2018-01-05T06:46:52.471Z,99161.46
2018-01-05T06:49:20.696Z,99161.38
2018-01-05T06:51:48.825Z,99159.17
2018-01-05T06:57:12.114Z,99168.59
2018-01-05T06:59:39.875Z,99171.61
2018-01-05T07:02:08.897Z,99168.11
2018-01-05T07:04:38.768Z,99163.83
2018-01-05T07:07:06.778Z,99170.80
2018-01-05T07:09:34.795Z,99173.98
2018-01-05T07:12:02.483Z,99178.11
2018-01-05T07:14:30.225Z,99185.23
2018-01-05T07:16:59.053Z,99202.65
2018-01-05T07:19:28.616Z,99199.09
2018-01-05T07:21:56.384Z,99204.80
2018-01-05T07:24:25.244Z,99219.22
2018-01-05T07:26:55.396Z,99209.16
2018-01-05T07:29:24.206Z,99213.76
2018-01-05T07:31:51.968Z,99222.31
2018-01-05T07:34:19.720Z,99226.17
2018-01-05T07:36:47.414Z,99236.61
2018-01-05T07:39:15.123Z,99242.48
2018-01-05T07:41:42.862Z,99241.98
2018-01-05T07:44:11.364Z,99244.05
2018-01-05T07:46:40.225Z,99244.05
2018-01-05T07:49:09.188Z,99253.00
2018-01-05T07:51:37.143Z,99259.41
2018-01-05T07:54:05.995Z,99278.86
2018-01-05T07:56:35.013Z,99279.01
2018-01-05T07:59:02.766Z,99270.56
2018-01-05T08:01:30.516Z,99272.77
2018-01-05T08:04:00.692Z,99289.84
2018-01-05T08:06:30.930Z,99294.50
2018-01-05T08:08:58.834Z,99292.44
2018-01-05T08:11:28.066Z,99303.20
2018-01-05T08:13:58.099Z,99308.89
2018-01-05T08:16:26.583Z,99311.96
2018-01-05T08:18:55.812Z,99308.47
2018-01-05T08:21:23.621Z,99318.05
2018-01-05T08:23:51.729Z,99324.45
2018-01-05T08:26:19.867Z,99320.04
2018-01-05T08:28:49.465Z,99319.06
2018-01-05T08:31:17.404Z,99333.64
2018-01-05T08:33:46.278Z,99326.74
2018-01-05T08:36:14.099Z,99332.03
2018-01-05T08:38:43.340Z,99325.88
2018-01-05T08:41:11.902Z,99328.41
2018-01-05T08:43:41.144Z,99338.50
2018-01-05T08:46:10.466Z,99338.34
2018-01-05T08:48:39.492Z,99353.22
2018-01-05T08:51:07.250Z,99349.28
2018-01-05T08:53:35.759Z,99353.06
2018-01-05T08:56:03.594Z,99360.91
2018-01-05T08:58:32.204Z,99367.78
2018-01-05T09:01:00.785Z,99364.79
2018-01-05T09:03:28.738Z,99363.13
2018-01-05T09:05:57.694Z,99358.13
2018-01-05T09:08:26.685Z,99370.09
2018-01-05T09:10:54.576Z,99371.27
2018-01-05T09:13:22.366Z,99380.38
2018-01-05T09:15:50.982Z,99384.88
2018-01-05T09:18:20.047Z,99391.23
2018-01-05T09:20:47.841Z,99393.76
2018-01-05T09:23:15.606Z,99409.67
2018-01-05T09:25:43.347Z,99409.58
2018-01-05T09:28:12.379Z,99409.75
2018-01-05T09:30:41.004Z,99412.66
2018-01-05T09:33:08.963Z,99425.73
2018-01-05T09:35:36.727Z,99423.52
2018-01-05T09:38:04.344Z,99423.83
2018-01-05T09:40:32.053Z,99425.10
2018-01-05T09:42:59.744Z,99430.17
2018-01-05T09:45:27.783Z,99430.58
2018-01-05T09:47:55.513Z,99425.28
2018-01-05T09:50:23.286Z,99427.50
2018-01-05T09:52:51.079Z,99437.16
2018-01-05T09:55:19.083Z,99433.34
2018-01-05T09:57:47.123Z,99434.25
2018-01-05T10:00:15.190Z,99446.06
2018-01-05T10:02:42.988Z,99444.15
2018-01-05T10:05:10.692Z,99441.55
2018-01-05T10:07:38.403Z,99448.14
2018-01-05T10:10:06.437Z,99446.94
2018-01-05T10:12:34.131Z,99450.76
2018-01-05T10:15:01.769Z,99460.55
2018-01-05T10:17:29.750Z,99460.39
2018-01-05T10:19:57.459Z,99466.27
2018-01-05T10:22:25.156Z,99463.77
2018-01-05T10:24:52.839Z,99471.67
2018-01-05T10:27:20.592Z,99472.61
2018-01-05T10:32:22.603Z,99477.47
2018-01-05T10:37:52.461Z,99483.55
2018-01-05T10:40:20.910Z,99476.36
2018-01-05T10:42:48.984Z,99486.27
2018-01-05T10:45:16.756Z,99470.59
2018-01-05T10:47:44.509Z,99475.27
2018-01-05T10:50:12.194Z,99470.11
2018-01-05T10:52:40.133Z,99465.78
2018-01-05T10:55:07.823Z,99468.30
2018-01-05T10:57:42.681Z,99468.23
2018-01-05T11:00:10.447Z,99479.56
2018-01-05T11:02:38.123Z,99474.44
2018-01-05T11:05:06.122Z,99477.59
2018-01-05T11:07:33.877Z,99474.58
2018-01-05T11:10:01.665Z,99479.20
2018-01-05T11:12:29.440Z,99479.12
2018-01-05T11:14:57.120Z,99482.84
2018-01-05T11:17:24.814Z,99478.58
2018-01-05T11:19:52.542Z,99479.20
2018-01-05T11:22:20.670Z,99477.25
2018-01-05T11:24:48.368Z,99470.98
2018-01-05T11:27:16.254Z,99463.64
2018-01-05T11:29:44.217Z,99457.36
2018-01-05T11:32:11.882Z,99462.75
2018-01-05T11:34:40.039Z,99477.33
2018-01-05T11:37:07.766Z,99485.33
2018-01-05T11:39:35.581Z,99502.52
2018-01-05T11:42:03.303Z,99502.59
2018-01-05T11:44:30.942Z,99500.30
2018-01-05T11:47:00.624Z,99498.11
2018-01-05T11:49:28.569Z,99508.56
2018-01-05T11:51:56.385Z,99505.22
2018-01-05T11:54:25.138Z,99513.13
2018-01-05T11:56:53.161Z,99511.72
2018-01-05T11:59:20.901Z,99507.46
2018-01-05T12:01:48.561Z,99509.19
2018-01-05T12:04:16.688Z,99511.02
2018-01-05T12:06:44.391Z,99525.43
2018-01-05T12:09:12.058Z,99517.59
2018-01-05T12:11:40.179Z,99522.66
2018-01-05T12:14:07.810Z,99510.22
2018-01-05T12:16:36.832Z,99504.22
2018-01-05T12:21:39.903Z,99503.33
2018-01-05T12:24:07.595Z,99486.69
2018-01-05T12:26:35.322Z,99492.25
2018-01-05T12:29:02.987Z,99494.24
2018-01-05T12:31:30.696Z,99489.56
2018-01-05T12:33:58.376Z,99489.81
2018-01-05T12:36:26.083Z,99487.89
2018-01-05T12:38:53.731Z,99493.20
2018-01-05T12:41:21.849Z,99501.53
2018-01-05T12:43:49.924Z,99508.03
2018-01-05T12:46:18.903Z,99510.34
2018-01-05T12:48:46.701Z,99514.36
2018-01-05T12:51:15.633Z,99515.01
2018-01-05T12:53:44.237Z,99517.78
2018-01-05T12:56:12.330Z,99510.08
2018-01-05T12:58:40.043Z,99519.38
2018-01-05T13:01:07.726Z,99518.11
2018-01-05T13:03:35.615Z,99518.48
2018-01-05T13:06:03.292Z,99520.15
2018-01-05T13:08:30.908Z,99515.17
2018-01-05T13:10:58.520Z,99501.78
2018-01-05T13:13:26.090Z,99498.84
2018-01-05T13:15:53.844Z,99495.98
2018-01-05T13:18:21.444Z,99498.36
2018-01-05T13:20:49.111Z,99500.73
2018-01-05T13:23:16.671Z,99503.13
2018-01-05T13:25:45.791Z,99502.16
2018-01-05T13:28:13.784Z,99509.38
2018-01-05T13:30:41.418Z,99513.91
2018-01-05T13:33:09.005Z,99519.51
2018-01-05T13:35:36.618Z,99513.18
2018-01-05T13:38:04.288Z,99511.59
2018-01-05T13:40:31.889Z,99517.14
2018-01-05T13:42:59.847Z,99518.49
2018-01-05T13:45:27.458Z,99521.03
2018-01-05T13:47:55.029Z,99528.02
2018-01-05T13:50:22.874Z,99526.75
2018-01-05T13:52:50.799Z,99516.37
2018-01-05T13:55:18.379Z,99518.49
2018-01-05T13:57:46.026Z,99521.83
2018-01-05T14:00:13.626Z,99529.26
2018-01-05T14:02:41.283Z,99526.89
2018-01-05T14:05:11.958Z,99533.87
2018-01-05T14:07:40.004Z,99536.88
2018-01-05T14:10:07.603Z,99532.03
2018-01-05T14:12:35.474Z,99527.20
2018-01-05T14:15:03.295Z,99533.45
2018-01-05T14:17:30.863Z,99537.12
2018-01-05T14:19:58.517Z,99531.23
2018-01-05T14:22:26.159Z,99532.42
2018-01-05T14:24:54.108Z,99526.88
2018-01-05T14:27:26.057Z,99533.29
2018-01-05T14:29:54.150Z,99533.86
2018-01-05T14:32:21.743Z,99528.87
2018-01-05T14:34:49.424Z,99534.87
2018-01-05T14:37:17.343Z,99537.51
2018-01-05T14:39:45.031Z,99535.98
2018-01-05T14:42:12.687Z,99539.62
2018-01-05T14:44:40.397Z,99533.30
2018-01-05T14:47:07.967Z,99541.78
2018-01-05T14:49:35.669Z,99546.83
2018-01-05T14:52:03.293Z,99544.77
2018-01-05T14:54:30.903Z,99546.59
2018-01-05T14:56:58.942Z,99543.36
2018-01-05T14:59:26.513Z,99547.30
2018-01-05T15:01:54.095Z,99544.84
2018-01-05T15:04:21.840Z,99554.12
2018-01-05T15:06:49.501Z,99558.64
2018-01-05T15:09:17.123Z,99559.58
2018-01-05T15:11:44.692Z,99538.84
2018-01-05T15:14:12.377Z,99548.96
2018-01-05T15:16:41.204Z,99557.70
2018-01-05T15:19:08.834Z,99560.05
2018-01-05T15:21:36.485Z,99565.53
2018-01-05T15:24:04.108Z,99560.92
2018-01-05T15:26:32.035Z,99560.92
2018-01-05T15:28:59.753Z,99563.08
2018-01-05T15:31:27.637Z,99569.01
2018-01-05T15:33:55.259Z,99569.82
2018-01-05T15:36:22.920Z,99570.14
2018-01-05T15:38:50.562Z,99570.35
2018-01-05T15:41:18.183Z,99572.98
2018-01-05T15:43:45.967Z,99565.94
2018-01-05T15:46:13.938Z,99554.75
2018-01-05T15:48:41.522Z,99561.09
2018-01-05T15:51:09.204Z,99559.58
2018-01-05T15:53:36.958Z,99561.10
2018-01-05T15:56:04.608Z,99560.86
2018-01-05T15:58:32.314Z,99566.48
2018-01-05T16:01:00.415Z,99564.66
2018-01-05T16:03:28.040Z,99554.05
2018-01-05T16:05:55.669Z,99561.19
2018-01-05T16:08:23.571Z,99566.58
2018-01-05T16:10:51.795Z,99559.92
2018-01-05T16:13:19.598Z,99556.51
2018-01-05T16:15:47.500Z,99551.28
2018-01-05T16:18:15.159Z,99551.45
2018-01-05T16:20:42.887Z,99547.57
2018-01-05T16:23:10.519Z,99548.28
2018-01-05T16:25:38.364Z,99549.79
2018-01-05T16:28:06.020Z,99545.59
2018-01-05T16:30:33.630Z,99543.14
2018-01-05T16:33:01.268Z,99544.81
2018-01-05T16:35:28.851Z,99540.30
2018-01-05T16:37:56.467Z,99535.69
2018-01-05T16:40:24.122Z,99533.64
2018-01-05T16:42:51.926Z,99537.44
2018-01-05T16:45:19.863Z,99534.83
2018-01-05T16:47:47.827Z,99534.67
2018-01-05T16:50:15.657Z,99536.11
2018-01-05T16:52:43.295Z,99532.77
2018-01-05T16:55:10.971Z,99542.82
2018-01-05T16:57:38.562Z,99534.36
2018-01-05T17:00:06.193Z,99534.36
2018-01-05T17:02:33.846Z,99530.86
2018-01-05T17:05:01.429Z,99525.02
2018-01-05T17:07:29.330Z,99534.05
2018-01-05T17:09:56.972Z,99536.09
2018-01-05T17:12:24.870Z,99533.55
2018-01-05T17:14:52.544Z,99528.81
2018-01-05T17:17:20.503Z,99535.63
2018-01-05T17:19:48.086Z,99524.78
2018-01-05T17:22:15.994Z,99531.20
2018-01-05T17:24:43.667Z,99539.42
2018-01-05T17:27:12.173Z,99528.42
2018-01-05T17:29:39.798Z,99527.61
2018-01-05T17:32:09.453Z,99531.73
2018-01-05T17:34:37.515Z,99516.51
2018-01-05T17:37:05.113Z,99527.53
2018-01-05T17:39:32.816Z,99532.39
2018-01-05T17:42:00.512Z,99527.94
2018-01-05T17:44:28.186Z,99523.90
2018-01-05T17:46:55.891Z,99521.61
2018-01-05T17:49:23.543Z,99526.03
2018-01-05T17:51:51.211Z,99535.70
2018-01-05T17:54:19.760Z,99542.04
2018-01-05T17:56:47.381Z,99545.22
2018-01-05T17:59:15.045Z,99553.31
2018-01-05T18:01:43.922Z,99554.02
2018-01-05T18:04:14.446Z,99550.06
2018-01-05T18:06:44.395Z,99544.91
2018-01-05T18:09:24.617Z,99553.08
2018-01-05T18:11:52.376Z,99548.17
2018-01-05T18:14:20.277Z,99547.85
2018-01-05T18:16:47.917Z,99543.89
2018-01-05T18:19:15.502Z,99552.44
2018-01-05T18:21:44.311Z,99546.02
2018-01-05T18:24:11.955Z,99547.70
2018-01-05T18:26:39.619Z,99548.15
2018-01-05T18:29:07.599Z,99552.35
2018-01-05T18:31:36.632Z,99555.06
2018-01-05T18:34:04.399Z,99553.47
2018-01-05T18:36:33.132Z,99552.44
2018-01-05T18:39:00.988Z,99553.71
2018-01-05T18:41:29.279Z,99558.70
2018-01-05T18:43:57.352Z,99571.64
2018-01-05T18:46:24.970Z,99571.48
2018-01-05T18:48:52.794Z,99577.81
2018-01-05T18:51:20.505Z,99576.71
2018-01-05T18:53:48.131Z,99580.67
2018-01-05T18:56:15.792Z,99579.08
2018-01-05T18:58:43.733Z,99573.77
2018-01-05T19:01:11.399Z,99582.59
2018-01-05T19:03:39.249Z,99581.94
2018-01-05T19:06:07.229Z,99589.72
2018-01-05T19:08:34.837Z,99591.15
2018-01-05T19:11:02.755Z,99597.22
2018-01-05T19:13:30.404Z,99601.18
2018-01-05T19:15:58.020Z,99594.05
2018-01-05T19:18:25.668Z,99601.58
2018-01-05T19:20:53.222Z,99608.14
2018-01-05T19:23:20.968Z,99613.14
2018-01-05T19:25:48.838Z,99614.72
2018-01-05T19:30:54.828Z,99623.17
2018-01-05T19:33:22.614Z,99624.91
2018-01-05T19:35:50.266Z,99627.73
2018-01-05T19:38:17.907Z,99619.32
2018-01-05T19:40:46.996Z,99630.56
2018-01-05T19:43:14.688Z,99631.50
2018-01-05T19:45:42.550Z,99625.88
2018-01-05T19:48:13.950Z,99623.50
2018-01-05T19:50:42.069Z,99631.27
2018-01-05T19:53:12.427Z,99635.37
2018-01-05T19:55:41.766Z,99635.76
2018-01-05T19:58:09.622Z,99637.08
2018-01-05T20:00:39.534Z,99632.86
2018-01-05T20:03:07.662Z,99643.53
2018-01-05T20:05:37.209Z,99638.38
2018-01-05T20:08:08.129Z,99645.73
2018-01-05T20:10:38.439Z,99643.98
2018-01-05T20:13:07.732Z,99653.94
2018-01-05T20:15:36.482Z,99654.06
2018-01-05T20:18:04.139Z,99659.92
2018-01-05T20:20:31.988Z,99660.23
2018-01-05T20:22:59.732Z,99666.93
2018-01-05T20:25:29.057Z,99675.03
2018-01-05T20:27:56.707Z,99678.66
2018-01-05T20:30:27.413Z,99688.70
2018-01-05T20:32:55.144Z,99691.11
2018-01-05T20:35:26.168Z,99699.70
2018-01-05T20:37:55.990Z,99701.89
2018-01-05T20:40:23.778Z,99703.14
2018-01-05T20:42:53.302Z,99716.22
2018-01-05T20:45:21.382Z,99706.20
2018-01-05T20:47:48.999Z,99715.14
2018-01-05T20:50:19.102Z,99724.40
2018-01-05T20:52:46.790Z,99728.53
2018-01-05T20:55:14.681Z,99731.59
2018-01-05T20:57:42.305Z,99732.27
2018-01-05T21:00:10.278Z,99738.42
2018-01-05T21:02:38.958Z,99739.31
2018-01-05T21:05:06.724Z,99744.31
2018-01-05T21:07:34.474Z,99747.10
2018-01-05T21:10:02.316Z,99750.02
2018-01-05T21:12:29.959Z,99744.78
2018-01-05T21:14:58.410Z,99748.82
2018-01-05T21:17:26.078Z,99757.36
2018-01-05T21:19:53.713Z,99750.00
2018-01-05T21:22:21.303Z,99749.09
2018-01-05T21:24:49.336Z,99748.20
2018-01-05T21:27:17.683Z,99752.05
2018-01-05T21:29:49.097Z,99749.28
2018-01-05T21:32:20.333Z,99749.41
2018-01-05T21:34:47.931Z,99746.09
2018-01-05T21:37:27.890Z,99747.89
2018-01-05T21:39:56.992Z,99754.58
2018-01-05T21:42:24.610Z,99763.26
2018-01-05T21:44:52.341Z,99760.84
2018-01-05T21:47:20.096Z,99765.19
2018-01-05T21:49:48.212Z,99770.88
2018-01-05T21:52:15.844Z,99782.55
2018-01-05T21:54:43.558Z,99784.93
2018-01-05T21:57:11.255Z,99787.30
2018-01-05T21:59:39.084Z,99793.55
2018-01-05T22:02:06.874Z,99802.56
2018-01-05T22:04:34.693Z,99808.24
2018-01-05T22:07:02.766Z,99816.41
2018-01-05T22:09:30.722Z,99824.52
2018-01-05T22:11:58.312Z,99822.75
2018-01-05T22:14:26.297Z,99827.05
2018-01-05T22:16:54.048Z,99834.42
2018-01-05T22:19:22.699Z,99826.11
2018-01-05T22:21:50.439Z,99843.25
2018-01-05T22:24:19.411Z,99839.13
2018-01-05T22:26:47.316Z,99843.05
2018-01-05T22:29:15.165Z,99843.72
2018-01-05T22:31:42.915Z,99849.24
2018-01-05T22:34:11.149Z,99845.41
2018-01-05T22:36:39.333Z,99852.40
2018-01-05T22:39:07.268Z,99850.02
2018-01-05T22:41:35.028Z,99851.66
2018-01-05T22:44:02.774Z,99850.57
2018-01-05T22:46:30.444Z,99854.34
2018-01-05T22:48:58.275Z,99852.68
2018-01-05T22:51:26.108Z,99852.34
2018-01-05T22:53:54.038Z,99856.27
2018-01-05T22:56:22.018Z,99860.49
2018-01-05T22:58:49.961Z,99864.27
2018-01-05T23:01:19.020Z,99867.22
2018-01-05T23:03:46.896Z,99875.12
2018-01-05T23:06:14.817Z,99883.89
2018-01-05T23:08:42.630Z,99884.08
2018-01-05T23:11:10.559Z,99890.28
2018-01-05T23:13:38.205Z,99898.80
2018-01-05T23:16:05.966Z,99896.93
2018-01-05T23:18:33.807Z,99901.22
2018-01-05T23:21:01.386Z,99906.03
2018-01-05T23:23:29.153Z,99914.24
2018-01-05T23:25:56.825Z,99922.41
2018-01-05T23:28:24.621Z,99929.53
2018-01-05T23:30:52.394Z,99936.10
2018-01-05T23:33:20.737Z,99941.59
2018-01-05T23:35:48.397Z,99938.48
2018-01-05T23:38:16.306Z,99938.86
2018-01-05T23:40:44.017Z,99936.02
2018-01-05T23:43:11.857Z,99941.09
2018-01-05T23:45:39.726Z,99935.58
2018-01-05T23:48:07.503Z,99936.02
2018-01-05T23:50:35.133Z,99938.97
2018-01-05T23:53:02.785Z,99945.13
2018-01-05T23:55:32.412Z,99947.97
2018-01-05T23:58:00.142Z,99942.59
